createdAt,value
2019-02-24T00:01:50.473Z,95.60
2019-02-24T00:04:19.568Z,96.20
2019-02-24T00:06:48.734Z,96.10
2019-02-24T00:09:17.823Z,95.50
2019-02-24T00:11:46.933Z,95.80
2019-02-24T00:14:16.111Z,96.20
2019-02-24T00:16:45.207Z,95.80
2019-02-24T00:19:14.361Z,96.10
2019-02-24T00:21:43.515Z,96.10
2019-02-24T00:24:12.693Z,96.40
2019-02-24T00:26:41.837Z,96.70
2019-02-24T00:29:10.988Z,96.90
2019-02-24T00:31:40.139Z,97.10
2019-02-24T00:34:09.275Z,96.80
2019-02-24T00:36:38.403Z,97.30
2019-02-24T00:39:07.495Z,97.40
2019-02-24T00:41:36.675Z,97.30
2019-02-24T00:44:05.795Z,97.40
2019-02-24T00:46:34.908Z,97.30
2019-02-24T00:49:04.023Z,97.30
2019-02-24T00:51:33.148Z,97.10
2019-02-24T00:54:02.266Z,97.10
2019-02-24T00:56:31.394Z,97.00
2019-02-24T00:59:00.518Z,96.80
2019-02-24T01:01:29.606Z,96.70
2019-02-24T01:03:58.779Z,96.90
2019-02-24T01:06:27.876Z,97.10
2019-02-24T01:08:57.063Z,97.20
2019-02-24T01:11:26.247Z,97.10
2019-02-24T01:13:55.343Z,97.30
2019-02-24T01:16:24.441Z,97.80
2019-02-24T01:18:53.536Z,97.60
2019-02-24T01:21:22.706Z,97.90
2019-02-24T01:23:51.817Z,98.20
2019-02-24T01:26:20.918Z,98.10
2019-02-24T01:28:50.015Z,98.20
2019-02-24T01:31:19.104Z,98.20
2019-02-24T01:33:48.211Z,98.10
2019-02-24T01:36:17.328Z,98.20
2019-02-24T01:38:46.426Z,98.10
2019-02-24T01:41:15.507Z,97.70
2019-02-24T01:43:44.618Z,97.90
2019-02-24T01:46:13.781Z,98.40
2019-02-24T01:48:42.932Z,98.40
2019-02-24T01:51:12.107Z,98.60
2019-02-24T01:53:41.274Z,98.20
2019-02-24T01:56:10.889Z,97.90
2019-02-24T01:58:40.053Z,98.00
2019-02-24T02:01:09.183Z,98.00
2019-02-24T02:03:38.268Z,98.40
2019-02-24T02:06:07.459Z,98.70
2019-02-24T02:08:36.588Z,98.60
2019-02-24T02:11:05.758Z,98.60
2019-02-24T02:13:34.963Z,98.80
2019-02-24T02:16:04.158Z,98.60
2019-02-24T02:18:33.268Z,98.50
2019-02-24T02:21:02.375Z,98.70
2019-02-24T02:23:31.508Z,98.80
2019-02-24T02:26:00.620Z,99.00
2019-02-24T02:28:29.704Z,99.10
2019-02-24T02:30:58.809Z,99.70
2019-02-24T02:33:27.920Z,99.90
2019-02-24T02:35:57.059Z,99.80
2019-02-24T02:38:26.166Z,99.60
2019-02-24T02:40:55.268Z,99.90
2019-02-24T02:43:24.363Z,99.90
2019-02-24T02:45:53.541Z,99.90
2019-02-24T02:48:22.733Z,99.90
2019-02-24T02:50:51.929Z,99.90
2019-02-24T02:53:21.049Z,99.90
2019-02-24T02:55:50.244Z,99.90
2019-02-24T02:58:19.354Z,99.90
2019-02-24T03:00:48.548Z,99.90
2019-02-24T03:03:17.633Z,99.90
2019-02-24T03:05:58.449Z,99.90
2019-02-24T03:08:55.816Z,99.90
2019-02-24T03:11:24.929Z,99.90
2019-02-24T03:13:54.023Z,99.90
2019-02-24T03:16:26.287Z,99.90
2019-02-24T03:18:55.428Z,99.90
2019-02-24T03:21:24.636Z,99.90
2019-02-24T03:23:53.820Z,99.90
2019-02-24T03:26:23.000Z,99.90
2019-02-24T03:28:52.116Z,99.90
2019-02-24T03:31:21.244Z,99.90
2019-02-24T03:33:50.377Z,99.90
2019-02-24T03:36:19.483Z,99.90
2019-02-24T03:38:48.653Z,99.90
2019-02-24T03:41:17.749Z,99.90
2019-02-24T03:43:46.984Z,99.90
2019-02-24T03:46:16.195Z,99.90
2019-02-24T03:48:45.318Z,99.90
2019-02-24T03:51:14.463Z,99.90
2019-02-24T03:53:43.719Z,99.90
2019-02-24T03:56:12.912Z,99.90
2019-02-24T03:58:42.173Z,99.90
2019-02-24T04:01:11.526Z,99.90
2019-02-24T04:03:40.924Z,99.90
2019-02-24T04:06:10.119Z,99.90
2019-02-24T04:08:39.229Z,99.90
2019-02-24T04:11:08.355Z,99.90
2019-02-24T04:13:37.443Z,99.90
2019-02-24T04:16:06.636Z,99.90
2019-02-24T04:18:35.732Z,99.90
2019-02-24T04:21:04.995Z,99.90
2019-02-24T04:23:34.175Z,99.90
2019-02-24T04:26:03.376Z,99.90
2019-02-24T04:28:32.545Z,99.90
2019-02-24T04:31:01.680Z,99.90
2019-02-24T04:33:30.869Z,99.90
2019-02-24T04:35:59.976Z,99.90
2019-02-24T04:38:29.063Z,99.90
2019-02-24T04:40:58.191Z,99.90
2019-02-24T04:43:27.291Z,99.90
2019-02-24T04:45:56.471Z,99.90
2019-02-24T04:48:25.652Z,99.90
2019-02-24T04:50:54.832Z,99.90
2019-02-24T04:53:24.024Z,99.90
2019-02-24T04:55:53.148Z,99.90
2019-02-24T04:58:22.239Z,99.90
2019-02-24T05:00:51.359Z,99.90
2019-02-24T05:03:20.468Z,99.90
2019-02-24T05:05:49.572Z,99.90
2019-02-24T05:08:18.778Z,99.90
2019-02-24T05:10:47.983Z,99.90
2019-02-24T05:13:17.157Z,99.90
2019-02-24T05:15:46.263Z,99.90
2019-02-24T05:18:15.371Z,99.90
2019-02-24T05:20:44.625Z,99.90
2019-02-24T05:23:13.818Z,99.90
2019-02-24T05:25:43.014Z,99.90
2019-02-24T05:28:12.192Z,99.90
2019-02-24T05:30:41.300Z,99.90
2019-02-24T05:33:10.401Z,99.90
2019-02-24T05:35:39.523Z,99.90
2019-02-24T05:38:08.636Z,99.90
2019-02-24T05:40:37.760Z,99.90
2019-02-24T05:43:06.929Z,99.90
2019-02-24T05:45:36.026Z,99.90
2019-02-24T05:48:05.297Z,99.90
2019-02-24T05:50:34.402Z,99.90
2019-02-24T05:53:03.536Z,99.90
2019-02-24T05:55:32.735Z,99.90
2019-02-24T05:58:01.931Z,99.90
2019-02-24T06:00:31.040Z,99.90
2019-02-24T06:03:00.236Z,99.90
2019-02-24T06:05:29.507Z,99.90
2019-02-24T06:07:58.680Z,99.90
2019-02-24T06:10:27.783Z,99.90
2019-02-24T06:12:56.900Z,99.90
2019-02-24T06:15:26.042Z,99.90
2019-02-24T06:17:55.197Z,99.90
2019-02-24T06:20:24.292Z,99.90
2019-02-24T06:22:53.430Z,99.90
2019-02-24T06:25:22.910Z,99.90
2019-02-24T06:27:52.190Z,99.90
2019-02-24T06:30:21.377Z,99.90
2019-02-24T06:32:50.569Z,99.90
2019-02-24T06:35:19.667Z,99.90
2019-02-24T06:37:48.827Z,99.90
2019-02-24T06:40:18.073Z,99.90
2019-02-24T06:42:47.192Z,99.90
2019-02-24T06:45:16.306Z,99.90
2019-02-24T06:47:45.424Z,99.90
2019-02-24T06:50:14.580Z,99.90
2019-02-24T06:52:43.693Z,99.90
2019-02-24T06:55:12.870Z,99.90
2019-02-24T06:57:41.997Z,99.90
2019-02-24T07:00:14.020Z,99.90
2019-02-24T07:02:42.456Z,99.90
2019-02-24T07:05:13.136Z,99.90
2019-02-24T07:07:42.307Z,99.90
2019-02-24T07:10:11.441Z,99.90
2019-02-24T07:12:43.802Z,99.90
2019-02-24T07:15:13.031Z,99.90
2019-02-24T07:17:42.162Z,99.90
2019-02-24T07:20:11.328Z,99.90
2019-02-24T07:22:40.517Z,99.90
2019-02-24T07:25:09.844Z,99.90
2019-02-24T07:27:39.145Z,99.90
2019-02-24T07:30:08.811Z,99.90
2019-02-24T07:32:37.979Z,99.90
2019-02-24T07:35:07.194Z,99.90
2019-02-24T07:37:36.331Z,99.90
2019-02-24T07:40:05.671Z,99.90
2019-02-24T07:42:34.776Z,99.90
2019-02-24T07:45:05.172Z,99.90
2019-02-24T07:47:34.392Z,99.90
2019-02-24T07:50:03.676Z,99.90
2019-02-24T07:52:32.837Z,99.90
2019-02-24T07:55:02.055Z,99.90
2019-02-24T07:57:31.195Z,99.90
2019-02-24T08:00:00.340Z,99.70
2019-02-24T08:02:29.487Z,99.70
2019-02-24T08:04:58.704Z,99.40
2019-02-24T08:07:27.915Z,99.20
2019-02-24T08:09:57.024Z,99.10
2019-02-24T08:12:29.456Z,99.00
2019-02-24T08:14:58.608Z,98.90
2019-02-24T08:17:27.747Z,98.10
2019-02-24T08:19:56.892Z,98.20
2019-02-24T08:22:26.039Z,97.60
2019-02-24T08:24:55.140Z,97.10
2019-02-24T08:27:24.250Z,97.00
2019-02-24T08:29:53.456Z,97.10
2019-02-24T08:32:22.563Z,96.90
2019-02-24T08:34:53.093Z,96.80
2019-02-24T08:37:22.447Z,96.70
2019-02-24T08:39:51.565Z,96.50
2019-02-24T08:42:20.691Z,96.20
2019-02-24T08:44:49.789Z,95.90
2019-02-24T08:47:18.968Z,95.40
2019-02-24T08:49:48.144Z,95.40
2019-02-24T08:52:30.202Z,94.40
2019-02-24T08:54:59.402Z,94.20
2019-02-24T08:57:28.528Z,93.60
2019-02-24T08:59:57.623Z,93.50
2019-02-24T09:02:26.773Z,93.70
2019-02-24T09:04:55.901Z,93.60
2019-02-24T09:07:25.125Z,93.80
2019-02-24T09:09:54.300Z,93.50
2019-02-24T09:12:23.476Z,93.50
2019-02-24T09:14:52.575Z,92.90
2019-02-24T09:17:21.679Z,92.50
2019-02-24T09:19:50.859Z,92.10
2019-02-24T09:22:20.108Z,90.00
2019-02-24T09:24:49.327Z,84.20
2019-02-24T09:27:18.457Z,84.50
2019-02-24T09:29:47.615Z,83.40
2019-02-24T09:32:17.080Z,80.80
2019-02-24T09:34:46.217Z,80.60
2019-02-24T09:37:15.415Z,78.80
2019-02-24T09:39:44.565Z,78.60
2019-02-24T09:42:13.668Z,79.60
2019-02-24T09:44:42.792Z,77.70
2019-02-24T09:47:11.973Z,77.20
2019-02-24T09:49:41.160Z,79.00
2019-02-24T09:52:10.244Z,77.10
2019-02-24T09:54:39.371Z,77.20
2019-02-24T09:57:08.530Z,77.70
2019-02-24T09:59:37.652Z,76.60
2019-02-24T10:02:06.758Z,76.60
2019-02-24T10:04:35.890Z,74.10
2019-02-24T10:07:05.071Z,73.90
2019-02-24T10:09:34.171Z,94.50
2019-02-24T10:12:03.276Z,99.90
2019-02-24T10:14:32.428Z,99.90
2019-02-24T10:17:01.695Z,95.70
2019-02-24T10:19:31.313Z,78.70
2019-02-24T10:22:00.597Z,77.00
2019-02-24T10:24:29.756Z,66.20
2019-02-24T10:26:58.983Z,67.00
2019-02-24T10:29:28.207Z,69.80
2019-02-24T10:31:57.333Z,69.00
2019-02-24T10:34:26.459Z,66.20
2019-02-24T10:36:55.651Z,66.00
2019-02-24T10:39:29.660Z,66.20
2019-02-24T10:41:55.592Z,64.70
2019-02-24T10:44:24.676Z,62.70
2019-02-24T10:46:53.842Z,64.50
2019-02-24T10:49:23.076Z,63.50
2019-02-24T10:51:52.327Z,63.80
2019-02-24T10:54:21.447Z,62.00
2019-02-24T10:56:50.657Z,61.10
2019-02-24T10:59:19.788Z,60.40
2019-02-24T11:01:48.960Z,59.60
2019-02-24T11:04:18.172Z,58.80
2019-02-24T11:06:47.306Z,56.70
2019-02-24T11:09:18.886Z,56.50
2019-02-24T11:11:56.903Z,54.70
2019-02-24T11:14:26.155Z,53.50
2019-02-24T11:16:55.344Z,53.40
2019-02-24T11:19:24.484Z,52.40
2019-02-24T11:21:53.715Z,51.20
2019-02-24T11:24:22.866Z,49.90
2019-02-24T11:26:52.005Z,49.60
2019-02-24T11:29:21.099Z,49.10
2019-02-24T11:31:50.195Z,46.80
2019-02-24T11:34:23.946Z,43.80
2019-02-24T11:36:53.092Z,44.70
2019-02-24T11:39:22.182Z,43.40
2019-02-24T11:41:51.540Z,42.50
2019-02-24T11:44:20.664Z,42.10
2019-02-24T11:46:49.977Z,41.80
2019-02-24T11:49:19.121Z,40.30
2019-02-24T11:51:48.275Z,39.60
2019-02-24T11:54:17.479Z,39.70
2019-02-24T11:56:46.805Z,39.30
2019-02-24T11:59:16.028Z,39.60
2019-02-24T12:01:47.610Z,40.10
2019-02-24T12:04:16.189Z,39.20
2019-02-24T12:06:45.299Z,38.90
2019-02-24T12:09:14.595Z,38.40
2019-02-24T12:11:43.776Z,36.20
2019-02-24T12:14:12.922Z,35.30
2019-02-24T12:16:42.024Z,35.40
2019-02-24T12:19:11.134Z,35.30
2019-02-24T12:21:40.363Z,35.10
2019-02-24T12:24:09.532Z,34.10
2019-02-24T12:26:38.652Z,32.70
2019-02-24T12:29:07.819Z,33.60
2019-02-24T12:31:36.947Z,33.80
2019-02-24T12:34:06.309Z,32.90
2019-02-24T12:36:35.397Z,34.00
2019-02-24T12:39:05.563Z,33.70
2019-02-24T12:41:34.643Z,33.30
2019-02-24T12:44:03.853Z,33.90
2019-02-24T12:46:33.030Z,33.90
2019-02-24T12:49:02.266Z,34.90
2019-02-24T12:51:31.554Z,35.20
2019-02-24T12:54:00.860Z,34.30
2019-02-24T12:56:29.964Z,32.30
2019-02-24T12:58:59.217Z,31.80
2019-02-24T13:01:28.464Z,32.90
2019-02-24T13:03:57.691Z,33.40
2019-02-24T13:06:26.961Z,32.20
2019-02-24T13:08:56.140Z,32.90
2019-02-24T13:11:25.256Z,33.50
2019-02-24T13:13:54.363Z,33.20
2019-02-24T13:16:23.571Z,32.30
2019-02-24T13:18:52.846Z,32.50
2019-02-24T13:21:22.052Z,32.50
2019-02-24T13:23:51.158Z,32.60
2019-02-24T13:26:20.556Z,33.10
2019-02-24T13:28:50.717Z,32.90
2019-02-24T13:31:20.029Z,32.80
2019-02-24T13:33:49.280Z,33.20
2019-02-24T13:36:18.364Z,33.70
2019-02-24T13:38:47.470Z,34.40
2019-02-24T13:41:16.657Z,34.30
2019-02-24T13:43:45.850Z,34.30
2019-02-24T13:46:14.935Z,34.20
2019-02-24T13:48:44.069Z,35.00
2019-02-24T13:51:13.237Z,35.20
2019-02-24T13:53:42.311Z,34.40
2019-02-24T13:56:11.414Z,35.20
2019-02-24T13:58:40.628Z,35.00
2019-02-24T14:01:09.755Z,35.30
2019-02-24T14:03:38.933Z,36.30
2019-02-24T14:06:08.052Z,36.70
2019-02-24T14:08:37.135Z,36.50
2019-02-24T14:11:06.372Z,36.30
2019-02-24T14:13:35.463Z,36.60
2019-02-24T14:16:04.769Z,38.00
2019-02-24T14:18:33.904Z,38.00
2019-02-24T14:21:03.024Z,38.20
2019-02-24T14:23:32.132Z,38.10
2019-02-24T14:26:01.289Z,37.70
2019-02-24T14:28:30.400Z,38.10
2019-02-24T14:30:59.508Z,37.90
2019-02-24T14:33:28.637Z,38.00
2019-02-24T14:35:57.799Z,38.50
2019-02-24T14:38:27.263Z,37.90
2019-02-24T14:40:56.432Z,37.40
2019-02-24T14:43:25.517Z,38.10
2019-02-24T14:45:54.710Z,38.50
2019-02-24T14:48:23.856Z,38.30
2019-02-24T14:50:53.212Z,38.20
2019-02-24T14:53:22.291Z,38.40
2019-02-24T14:55:51.417Z,38.50
2019-02-24T14:58:20.532Z,39.30
2019-02-24T15:00:49.675Z,39.60
2019-02-24T15:03:18.765Z,39.40
2019-02-24T15:05:47.877Z,39.60
2019-02-24T15:08:17.031Z,39.50
2019-02-24T15:10:48.232Z,40.30
2019-02-24T15:13:17.201Z,41.00
2019-02-24T15:15:46.376Z,40.00
2019-02-24T15:18:15.464Z,39.50
2019-02-24T15:20:44.543Z,38.50
2019-02-24T15:23:13.653Z,37.30
2019-02-24T15:25:42.943Z,37.00
2019-02-24T15:28:12.029Z,36.00
2019-02-24T15:30:41.128Z,34.80
2019-02-24T15:33:10.325Z,33.70
2019-02-24T15:35:39.479Z,33.20
2019-02-24T15:38:08.682Z,33.10
2019-02-24T15:40:37.875Z,32.00
2019-02-24T15:43:07.019Z,31.40
2019-02-24T15:45:36.191Z,32.20
2019-02-24T15:48:05.359Z,32.50
2019-02-24T15:50:34.456Z,32.40
2019-02-24T15:53:03.540Z,31.90
2019-02-24T15:55:32.637Z,31.80
2019-02-24T15:58:01.724Z,32.60
2019-02-24T16:00:31.000Z,33.30
2019-02-24T16:03:01.844Z,33.90
2019-02-24T16:05:30.983Z,34.50
2019-02-24T16:08:00.055Z,35.90
2019-02-24T16:10:29.188Z,36.00
2019-02-24T16:12:58.376Z,37.10
2019-02-24T16:15:27.694Z,37.90
2019-02-24T16:17:56.913Z,39.00
2019-02-24T16:20:26.284Z,39.70
2019-02-24T16:22:55.953Z,40.40
2019-02-24T16:25:25.070Z,40.40
2019-02-24T16:27:54.419Z,41.20
2019-02-24T16:30:23.534Z,41.50
2019-02-24T16:32:52.703Z,41.80
2019-02-24T16:35:21.807Z,42.50
2019-02-24T16:37:50.904Z,43.10
2019-02-24T16:40:20.063Z,44.90
2019-02-24T16:42:50.484Z,45.40
2019-02-24T16:45:19.940Z,45.90
2019-02-24T16:47:49.038Z,46.10
2019-02-24T16:50:18.339Z,46.20
2019-02-24T16:52:47.567Z,46.40
2019-02-24T16:55:16.835Z,46.40
2019-02-24T16:57:45.913Z,47.40
2019-02-24T17:00:17.522Z,49.00
2019-02-24T17:02:46.594Z,49.20
2019-02-24T17:05:15.828Z,49.60
2019-02-24T17:07:45.019Z,49.50
2019-02-24T17:10:16.011Z,49.80
2019-02-24T17:12:46.170Z,50.70
2019-02-24T17:15:15.327Z,50.40
2019-02-24T17:17:44.432Z,50.90
2019-02-24T17:20:15.620Z,51.80
2019-02-24T17:22:44.769Z,51.70
2019-02-24T17:25:14.044Z,52.00
2019-02-24T17:27:43.228Z,52.80
2019-02-24T17:30:12.901Z,53.30
2019-02-24T17:32:42.133Z,54.30
2019-02-24T17:35:11.515Z,55.20
2019-02-24T17:37:40.744Z,56.00
2019-02-24T17:40:11.381Z,56.70
2019-02-24T17:42:40.635Z,57.10
2019-02-24T17:45:11.200Z,58.20
2019-02-24T17:47:40.728Z,59.10
2019-02-24T17:50:10.693Z,60.10
2019-02-24T17:52:40.043Z,61.50
2019-02-24T17:55:12.467Z,63.10
2019-02-24T17:57:41.928Z,65.00
2019-02-24T18:00:17.452Z,66.90
2019-02-24T18:02:47.335Z,69.60
2019-02-24T18:05:17.251Z,71.60
2019-02-24T18:07:48.553Z,72.30
2019-02-24T18:10:17.820Z,76.20
2019-02-24T18:12:46.908Z,79.30
2019-02-24T18:15:16.272Z,81.20
2019-02-24T18:17:45.359Z,82.60
2019-02-24T18:20:14.681Z,84.70
2019-02-24T18:22:43.845Z,85.10
2019-02-24T18:25:13.212Z,85.40
2019-02-24T18:27:42.329Z,87.20
2019-02-24T18:30:14.858Z,89.00
2019-02-24T18:32:44.111Z,87.30
2019-02-24T18:35:13.375Z,86.50
2019-02-24T18:37:42.555Z,86.30
2019-02-24T18:40:14.518Z,87.60
2019-02-24T18:42:43.779Z,87.90
2019-02-24T18:45:13.717Z,89.50
2019-02-24T18:47:44.360Z,90.30
2019-02-24T18:50:13.690Z,90.50
2019-02-24T18:52:45.106Z,92.00
2019-02-24T18:55:14.417Z,92.10
2019-02-24T18:57:45.329Z,92.80
2019-02-24T19:00:15.636Z,93.60
2019-02-24T19:02:44.833Z,93.20
2019-02-24T19:05:14.167Z,93.20
2019-02-24T19:07:43.341Z,93.90
2019-02-24T19:10:14.191Z,94.20
2019-02-24T19:12:43.656Z,94.60
2019-02-24T19:15:15.322Z,95.00
2019-02-24T19:17:44.649Z,94.60
2019-02-24T19:20:15.752Z,94.90
2019-02-24T19:22:45.188Z,95.50
2019-02-24T19:25:15.939Z,95.60
2019-02-24T19:27:45.216Z,95.80
2019-02-24T19:30:15.080Z,96.10
2019-02-24T19:32:44.401Z,96.40
2019-02-24T19:35:14.143Z,96.70
2019-02-24T19:37:43.319Z,97.40
2019-02-24T19:40:13.626Z,98.40
2019-02-24T19:42:42.747Z,98.00
2019-02-24T19:45:13.123Z,98.50
2019-02-24T19:47:42.304Z,98.50
2019-02-24T19:50:15.527Z,98.50
2019-02-24T19:52:44.639Z,98.80
2019-02-24T19:55:14.023Z,98.80
2019-02-24T19:57:43.196Z,99.30
2019-02-24T20:00:15.613Z,99.60
2019-02-24T20:02:44.856Z,99.90
2019-02-24T20:05:14.156Z,99.90
2019-02-24T20:07:43.491Z,99.90
2019-02-24T20:10:15.393Z,99.70
2019-02-24T20:12:44.450Z,99.90
2019-02-24T20:15:14.250Z,99.90
2019-02-24T20:17:43.357Z,99.90
2019-02-24T20:20:13.044Z,99.90
2019-02-24T20:22:42.277Z,99.90
2019-02-24T20:25:12.019Z,99.90
2019-02-24T20:27:41.133Z,99.90
2019-02-24T20:30:21.654Z,99.90
2019-02-24T20:32:50.880Z,99.90
2019-02-24T20:35:20.076Z,99.90
2019-02-24T20:37:49.275Z,99.90
2019-02-24T20:40:18.459Z,99.90
2019-02-24T20:42:47.633Z,99.90
2019-02-24T20:45:17.992Z,99.90
2019-02-24T20:47:47.106Z,99.90
2019-02-24T20:50:17.407Z,99.90
2019-02-24T20:52:46.546Z,99.90
2019-02-24T20:55:15.872Z,99.90
2019-02-24T20:57:45.059Z,99.90
2019-02-24T21:00:17.994Z,99.90
2019-02-24T21:02:47.091Z,99.90
2019-02-24T21:05:16.217Z,99.90
2019-02-24T21:07:46.476Z,99.90
2019-02-24T21:10:15.740Z,99.90
2019-02-24T21:12:44.841Z,99.90
2019-02-24T21:15:14.180Z,99.90
2019-02-24T21:17:43.303Z,99.90
2019-02-24T21:20:15.187Z,99.90
2019-02-24T21:22:44.293Z,99.90
2019-02-24T21:25:13.710Z,99.90
2019-02-24T21:27:42.903Z,99.90
2019-02-24T21:30:14.227Z,99.90
2019-02-24T21:32:43.352Z,99.90
2019-02-24T21:35:12.775Z,99.90
2019-02-24T21:37:41.952Z,99.90
2019-02-24T21:40:11.648Z,99.90
2019-02-24T21:42:40.824Z,99.90
2019-02-24T21:45:12.603Z,99.90
2019-02-24T21:47:41.763Z,99.90
2019-02-24T21:50:12.386Z,99.90
2019-02-24T21:52:41.556Z,99.90
2019-02-24T21:55:11.452Z,99.90
2019-02-24T21:57:40.637Z,99.90
2019-02-24T22:00:12.704Z,99.90
2019-02-24T22:02:41.884Z,99.90
2019-02-24T22:05:11.217Z,99.90
2019-02-24T22:07:40.504Z,99.90
2019-02-24T22:10:10.421Z,99.90
2019-02-24T22:12:39.617Z,99.90
2019-02-24T22:15:11.272Z,99.90
2019-02-24T22:17:40.383Z,99.90
2019-02-24T22:20:09.697Z,99.90
2019-02-24T22:22:38.813Z,99.90
2019-02-24T22:25:08.984Z,99.90
2019-02-24T22:27:38.120Z,99.90
2019-02-24T22:30:09.724Z,99.90
2019-02-24T22:32:38.921Z,99.90
2019-02-24T22:35:08.420Z,99.90
2019-02-24T22:37:37.632Z,99.90
2019-02-24T22:40:08.384Z,99.90
2019-02-24T22:42:37.553Z,99.90
2019-02-24T22:45:08.617Z,99.90
2019-02-24T22:47:37.823Z,99.90
2019-02-24T22:50:07.670Z,99.90
2019-02-24T22:52:36.783Z,99.90
2019-02-24T22:55:06.292Z,99.90
2019-02-24T22:57:35.421Z,99.90
2019-02-24T23:00:11.765Z,99.90
2019-02-24T23:02:41.015Z,99.90
2019-02-24T23:05:11.751Z,99.90
2019-02-24T23:07:40.883Z,99.90
2019-02-24T23:10:10.293Z,99.90
2019-02-24T23:12:39.479Z,99.90
2019-02-24T23:15:08.721Z,99.90
2019-02-24T23:17:37.939Z,99.90
2019-02-24T23:20:07.235Z,99.90
2019-02-24T23:22:36.344Z,99.90
2019-02-24T23:25:05.740Z,99.90
2019-02-24T23:27:34.932Z,99.90
2019-02-24T23:30:05.107Z,99.90
2019-02-24T23:32:34.264Z,99.90
2019-02-24T23:35:03.401Z,99.90
2019-02-24T23:37:32.496Z,99.90
2019-02-24T23:40:02.892Z,99.90
2019-02-24T23:42:31.975Z,99.90
2019-02-24T23:45:09.872Z,99.90
2019-02-24T23:47:31.909Z,99.90
2019-02-24T23:50:01.006Z,99.90
2019-02-24T23:52:30.154Z,99.90
2019-02-24T23:54:59.320Z,99.90
2019-02-24T23:57:28.444Z,99.90
2019-02-24T23:59:57.596Z,99.90
